sensor_id;sensor_type;location;lat;lon;timestamp;P1;durP1;ratioP1;P2;durP2;ratioP2
39196;SDS011;42889;51.112;13.772;2022-07-22T00:00:06;12.23;;;8.77;;
39196;SDS011;42889;51.112;13.772;2022-07-22T00:02:34;11.68;;;8.55;;
39196;SDS011;42889;51.112;13.772;2022-07-22T00:05:01;9.23;;;8.20;;
39196;SDS011;42889;51.112;13.772;2022-07-22T00:07:27;9.90;;;8.02;;
39196;SDS011;42889;51.112;13.772;2022-07-22T00:09:54;10.63;;;8.68;;
39196;SDS011;42889;51.112;13.772;2022-07-22T00:12:21;11.27;;;8.75;;
39196;SDS011;42889;51.112;13.772;2022-07-22T00:14:48;13.95;;;8.70;;
39196;SDS011;42889;51.112;13.772;2022-07-22T00:17:14;10.75;;;8.95;;
39196;SDS011;42889;51.112;13.772;2022-07-22T00:19:41;12.07;;;9.32;;
39196;SDS011;42889;51.112;13.772;2022-07-22T00:22:07;13.05;;;9.93;;
39196;SDS011;42889;51.112;13.772;2022-07-22T00:24:34;12.40;;;10.65;;
39196;SDS011;42889;51.112;13.772;2022-07-22T00:27:00;12.13;;;9.32;;
39196;SDS011;42889;51.112;13.772;2022-07-22T00:29:27;12.25;;;10.77;;
39196;SDS011;42889;51.112;13.772;2022-07-22T00:31:54;13.90;;;11.07;;
39196;SDS011;42889;51.112;13.772;2022-07-22T00:34:20;14.23;;;10.43;;
39196;SDS011;42889;51.112;13.772;2022-07-22T00:36:47;11.63;;;10.25;;
39196;SDS011;42889;51.112;13.772;2022-07-22T00:39:13;13.13;;;10.65;;
39196;SDS011;42889;51.112;13.772;2022-07-22T00:41:41;13.88;;;10.52;;
39196;SDS011;42889;51.112;13.772;2022-07-22T00:44:08;12.60;;;10.48;;
39196;SDS011;42889;51.112;13.772;2022-07-22T00:46:36;12.60;;;9.52;;
39196;SDS011;42889;51.112;13.772;2022-07-22T00:49:05;12.98;;;9.57;;
39196;SDS011;42889;51.112;13.772;2022-07-22T00:51:33;12.00;;;9.38;;
39196;SDS011;42889;51.112;13.772;2022-07-22T00:54:00;11.18;;;8.98;;
39196;SDS011;42889;51.112;13.772;2022-07-22T00:56:27;10.05;;;8.93;;
39196;SDS011;42889;51.112;13.772;2022-07-22T00:58:55;11.27;;;9.20;;
39196;SDS011;42889;51.112;13.772;2022-07-22T01:01:24;12.35;;;9.07;;
39196;SDS011;42889;51.112;13.772;2022-07-22T01:03:51;10.05;;;8.90;;
39196;SDS011;42889;51.112;13.772;2022-07-22T01:06:26;10.63;;;8.90;;
39196;SDS011;42889;51.112;13.772;2022-07-22T01:08:54;10.60;;;8.15;;
39196;SDS011;42889;51.112;13.772;2022-07-22T01:11:23;9.57;;;7.97;;
39196;SDS011;42889;51.112;13.772;2022-07-22T01:13:51;11.00;;;7.95;;
39196;SDS011;42889;51.112;13.772;2022-07-22T01:16:19;10.68;;;8.02;;
39196;SDS011;42889;51.112;13.772;2022-07-22T01:18:46;11.45;;;7.90;;
39196;SDS011;42889;51.112;13.772;2022-07-22T01:21:13;12.40;;;8.75;;
39196;SDS011;42889;51.112;13.772;2022-07-22T01:23:40;10.52;;;8.18;;
39196;SDS011;42889;51.112;13.772;2022-07-22T01:26:07;11.25;;;8.32;;
39196;SDS011;42889;51.112;13.772;2022-07-22T01:28:34;10.18;;;7.85;;
39196;SDS011;42889;51.112;13.772;2022-07-22T01:31:01;10.30;;;8.13;;
39196;SDS011;42889;51.112;13.772;2022-07-22T01:33:28;10.85;;;8.52;;
39196;SDS011;42889;51.112;13.772;2022-07-22T01:35:54;10.35;;;8.25;;
39196;SDS011;42889;51.112;13.772;2022-07-22T01:38:21;10.98;;;8.80;;
39196;SDS011;42889;51.112;13.772;2022-07-22T01:40:48;11.27;;;8.93;;
39196;SDS011;42889;51.112;13.772;2022-07-22T01:43:15;11.50;;;9.27;;
39196;SDS011;42889;51.112;13.772;2022-07-22T01:45:44;12.07;;;10.38;;
39196;SDS011;42889;51.112;13.772;2022-07-22T01:48:11;11.50;;;9.68;;
39196;SDS011;42889;51.112;13.772;2022-07-22T01:50:39;11.23;;;9.50;;
39196;SDS011;42889;51.112;13.772;2022-07-22T01:53:06;12.90;;;9.70;;
39196;SDS011;42889;51.112;13.772;2022-07-22T01:55:34;11.52;;;9.55;;
39196;SDS011;42889;51.112;13.772;2022-07-22T01:58:01;12.82;;;9.52;;
39196;SDS011;42889;51.112;13.772;2022-07-22T02:00:27;11.93;;;10.18;;
39196;SDS011;42889;51.112;13.772;2022-07-22T02:02:54;12.30;;;10.43;;
39196;SDS011;42889;51.112;13.772;2022-07-22T02:05:20;12.13;;;9.77;;
39196;SDS011;42889;51.112;13.772;2022-07-22T02:07:47;11.18;;;8.98;;
39196;SDS011;42889;51.112;13.772;2022-07-22T02:10:13;11.98;;;9.07;;
39196;SDS011;42889;51.112;13.772;2022-07-22T02:12:40;11.05;;;8.80;;
39196;SDS011;42889;51.112;13.772;2022-07-22T02:15:07;11.05;;;8.60;;
39196;SDS011;42889;51.112;13.772;2022-07-22T02:17:34;11.90;;;8.73;;
39196;SDS011;42889;51.112;13.772;2022-07-22T02:20:02;12.50;;;8.65;;
39196;SDS011;42889;51.112;13.772;2022-07-22T02:22:30;9.65;;;7.95;;
39196;SDS011;42889;51.112;13.772;2022-07-22T02:24:56;11.20;;;8.05;;
39196;SDS011;42889;51.112;13.772;2022-07-22T02:27:23;12.35;;;8.43;;
39196;SDS011;42889;51.112;13.772;2022-07-22T02:29:49;10.68;;;7.80;;
39196;SDS011;42889;51.112;13.772;2022-07-22T02:32:16;10.57;;;8.10;;
39196;SDS011;42889;51.112;13.772;2022-07-22T02:34:42;10.57;;;8.40;;
39196;SDS011;42889;51.112;13.772;2022-07-22T02:37:09;10.70;;;9.00;;
39196;SDS011;42889;51.112;13.772;2022-07-22T02:39:36;12.90;;;8.77;;
39196;SDS011;42889;51.112;13.772;2022-07-22T02:42:02;11.82;;;9.50;;
39196;SDS011;42889;51.112;13.772;2022-07-22T02:44:29;14.05;;;9.75;;
39196;SDS011;42889;51.112;13.772;2022-07-22T02:46:56;10.23;;;9.13;;
39196;SDS011;42889;51.112;13.772;2022-07-22T02:49:22;11.35;;;9.40;;
39196;SDS011;42889;51.112;13.772;2022-07-22T02:51:49;12.32;;;9.23;;
39196;SDS011;42889;51.112;13.772;2022-07-22T02:54:15;11.45;;;9.48;;
39196;SDS011;42889;51.112;13.772;2022-07-22T02:56:42;11.15;;;9.13;;
39196;SDS011;42889;51.112;13.772;2022-07-22T02:59:09;10.55;;;9.25;;
39196;SDS011;42889;51.112;13.772;2022-07-22T03:01:35;12.52;;;9.25;;
39196;SDS011;42889;51.112;13.772;2022-07-22T03:04:02;13.13;;;9.35;;
39196;SDS011;42889;51.112;13.772;2022-07-22T03:06:29;13.02;;;9.57;;
39196;SDS011;42889;51.112;13.772;2022-07-22T03:08:55;12.75;;;9.13;;
39196;SDS011;42889;51.112;13.772;2022-07-22T03:11:23;11.15;;;8.90;;
39196;SDS011;42889;51.112;13.772;2022-07-22T03:13:49;11.65;;;9.57;;
39196;SDS011;42889;51.112;13.772;2022-07-22T03:16:16;11.85;;;9.32;;
39196;SDS011;42889;51.112;13.772;2022-07-22T03:18:42;10.50;;;8.75;;
39196;SDS011;42889;51.112;13.772;2022-07-22T03:21:09;13.48;;;8.32;;
39196;SDS011;42889;51.112;13.772;2022-07-22T03:23:35;11.48;;;8.45;;
39196;SDS011;42889;51.112;13.772;2022-07-22T03:26:02;12.65;;;8.68;;
39196;SDS011;42889;51.112;13.772;2022-07-22T03:28:29;10.10;;;7.80;;
39196;SDS011;42889;51.112;13.772;2022-07-22T03:30:56;11.13;;;8.50;;
39196;SDS011;42889;51.112;13.772;2022-07-22T03:33:23;9.77;;;8.48;;
39196;SDS011;42889;51.112;13.772;2022-07-22T03:35:50;10.90;;;8.00;;
39196;SDS011;42889;51.112;13.772;2022-07-22T03:38:16;10.52;;;7.55;;
39196;SDS011;42889;51.112;13.772;2022-07-22T03:40:43;11.65;;;7.55;;
39196;SDS011;42889;51.112;13.772;2022-07-22T03:43:10;11.10;;;7.50;;
39196;SDS011;42889;51.112;13.772;2022-07-22T03:45:36;11.68;;;7.80;;
39196;SDS011;42889;51.112;13.772;2022-07-22T03:48:03;10.00;;;7.43;;
39196;SDS011;42889;51.112;13.772;2022-07-22T03:50:30;10.82;;;7.57;;
39196;SDS011;42889;51.112;13.772;2022-07-22T03:52:57;11.35;;;6.60;;
39196;SDS011;42889;51.112;13.772;2022-07-22T03:55:24;9.65;;;6.57;;
39196;SDS011;42889;51.112;13.772;2022-07-22T03:57:50;10.40;;;7.78;;
39196;SDS011;42889;51.112;13.772;2022-07-22T04:00:17;10.15;;;7.13;;
39196;SDS011;42889;51.112;13.772;2022-07-22T04:02:43;8.45;;;7.03;;
39196;SDS011;42889;51.112;13.772;2022-07-22T04:05:10;10.23;;;7.10;;
39196;SDS011;42889;51.112;13.772;2022-07-22T04:07:36;9.02;;;7.38;;
39196;SDS011;42889;51.112;13.772;2022-07-22T04:10:03;9.70;;;6.70;;
39196;SDS011;42889;51.112;13.772;2022-07-22T04:12:34;10.20;;;7.30;;
39196;SDS011;42889;51.112;13.772;2022-07-22T04:15:02;9.18;;;7.40;;
39196;SDS011;42889;51.112;13.772;2022-07-22T04:17:30;8.80;;;6.60;;
39196;SDS011;42889;51.112;13.772;2022-07-22T04:19:57;10.23;;;7.18;;
39196;SDS011;42889;51.112;13.772;2022-07-22T04:22:26;10.38;;;7.85;;
39196;SDS011;42889;51.112;13.772;2022-07-22T04:24:53;9.63;;;6.97;;
39196;SDS011;42889;51.112;13.772;2022-07-22T04:27:20;8.88;;;7.45;;
39196;SDS011;42889;51.112;13.772;2022-07-22T04:29:47;11.05;;;8.07;;
39196;SDS011;42889;51.112;13.772;2022-07-22T04:32:13;9.95;;;8.27;;
39196;SDS011;42889;51.112;13.772;2022-07-22T04:34:40;11.45;;;8.07;;
39196;SDS011;42889;51.112;13.772;2022-07-22T04:37:07;11.45;;;7.97;;
39196;SDS011;42889;51.112;13.772;2022-07-22T04:39:34;11.98;;;8.20;;
39196;SDS011;42889;51.112;13.772;2022-07-22T04:42:01;11.43;;;8.18;;
39196;SDS011;42889;51.112;13.772;2022-07-22T04:44:28;10.85;;;8.77;;
39196;SDS011;42889;51.112;13.772;2022-07-22T04:46:55;11.60;;;9.63;;
39196;SDS011;42889;51.112;13.772;2022-07-22T04:49:22;14.48;;;9.55;;
39196;SDS011;42889;51.112;13.772;2022-07-22T04:51:49;15.90;;;9.43;;
39196;SDS011;42889;51.112;13.772;2022-07-22T04:54:15;14.38;;;10.32;;
39196;SDS011;42889;51.112;13.772;2022-07-22T04:56:44;13.25;;;9.85;;
39196;SDS011;42889;51.112;13.772;2022-07-22T04:59:10;14.70;;;10.48;;
39196;SDS011;42889;51.112;13.772;2022-07-22T05:01:37;16.20;;;10.85;;
39196;SDS011;42889;51.112;13.772;2022-07-22T05:04:05;12.63;;;10.32;;
39196;SDS011;42889;51.112;13.772;2022-07-22T05:06:32;13.93;;;10.23;;
39196;SDS011;42889;51.112;13.772;2022-07-22T05:08:59;13.88;;;10.40;;
39196;SDS011;42889;51.112;13.772;2022-07-22T05:11:26;12.70;;;10.00;;
39196;SDS011;42889;51.112;13.772;2022-07-22T05:13:52;13.05;;;9.38;;
39196;SDS011;42889;51.112;13.772;2022-07-22T05:16:19;13.65;;;9.30;;
39196;SDS011;42889;51.112;13.772;2022-07-22T05:18:46;12.13;;;9.15;;
39196;SDS011;42889;51.112;13.772;2022-07-22T05:21:12;15.02;;;9.90;;
39196;SDS011;42889;51.112;13.772;2022-07-22T05:23:39;12.82;;;9.73;;
39196;SDS011;42889;51.112;13.772;2022-07-22T05:26:05;15.95;;;9.90;;
39196;SDS011;42889;51.112;13.772;2022-07-22T05:28:32;12.18;;;9.48;;
39196;SDS011;42889;51.112;13.772;2022-07-22T05:30:59;13.00;;;9.50;;
39196;SDS011;42889;51.112;13.772;2022-07-22T05:33:25;15.15;;;9.88;;
39196;SDS011;42889;51.112;13.772;2022-07-22T05:35:52;14.80;;;10.23;;
39196;SDS011;42889;51.112;13.772;2022-07-22T05:38:19;13.20;;;9.18;;
39196;SDS011;42889;51.112;13.772;2022-07-22T05:40:45;10.82;;;8.70;;
39196;SDS011;42889;51.112;13.772;2022-07-22T05:43:12;12.75;;;8.95;;
39196;SDS011;42889;51.112;13.772;2022-07-22T05:45:38;11.88;;;7.97;;
39196;SDS011;42889;51.112;13.772;2022-07-22T05:48:05;12.82;;;7.85;;
39196;SDS011;42889;51.112;13.772;2022-07-22T05:50:32;12.65;;;7.88;;
39196;SDS011;42889;51.112;13.772;2022-07-22T05:52:58;13.10;;;8.00;;
39196;SDS011;42889;51.112;13.772;2022-07-22T05:55:25;10.60;;;6.82;;
39196;SDS011;42889;51.112;13.772;2022-07-22T05:57:51;11.75;;;6.20;;
39196;SDS011;42889;51.112;13.772;2022-07-22T06:00:18;8.18;;;5.22;;
39196;SDS011;42889;51.112;13.772;2022-07-22T06:02:45;8.25;;;5.53;;
39196;SDS011;42889;51.112;13.772;2022-07-22T06:05:11;6.70;;;4.85;;
39196;SDS011;42889;51.112;13.772;2022-07-22T06:07:58;7.25;;;4.68;;
39196;SDS011;42889;51.112;13.772;2022-07-22T06:10:24;6.15;;;4.68;;
39196;SDS011;42889;51.112;13.772;2022-07-22T06:12:51;7.70;;;4.50;;
39196;SDS011;42889;51.112;13.772;2022-07-22T06:15:17;6.88;;;4.50;;
39196;SDS011;42889;51.112;13.772;2022-07-22T06:17:44;5.80;;;4.10;;
39196;SDS011;42889;51.112;13.772;2022-07-22T06:20:11;6.38;;;4.10;;
39196;SDS011;42889;51.112;13.772;2022-07-22T06:22:39;6.90;;;3.95;;
39196;SDS011;42889;51.112;13.772;2022-07-22T06:25:06;6.80;;;4.20;;
39196;SDS011;42889;51.112;13.772;2022-07-22T06:27:54;9.18;;;3.90;;
39196;SDS011;42889;51.112;13.772;2022-07-22T06:30:20;8.20;;;4.05;;
39196;SDS011;42889;51.112;13.772;2022-07-22T06:32:47;5.47;;;3.50;;
39196;SDS011;42889;51.112;13.772;2022-07-22T06:35:21;5.88;;;3.80;;
39196;SDS011;42889;51.112;13.772;2022-07-22T06:37:48;6.03;;;3.47;;
39196;SDS011;42889;51.112;13.772;2022-07-22T06:40:29;7.15;;;3.90;;
39196;SDS011;42889;51.112;13.772;2022-07-22T06:42:56;5.90;;;3.80;;
39196;SDS011;42889;51.112;13.772;2022-07-22T06:45:23;5.40;;;3.72;;
39196;SDS011;42889;51.112;13.772;2022-07-22T06:47:50;6.88;;;4.10;;
39196;SDS011;42889;51.112;13.772;2022-07-22T06:50:17;6.35;;;3.83;;
39196;SDS011;42889;51.112;13.772;2022-07-22T06:52:43;8.23;;;3.97;;
39196;SDS011;42889;51.112;13.772;2022-07-22T06:55:10;6.03;;;3.95;;
39196;SDS011;42889;51.112;13.772;2022-07-22T06:57:37;6.55;;;4.00;;
39196;SDS011;42889;51.112;13.772;2022-07-22T07:00:04;5.32;;;3.60;;
39196;SDS011;42889;51.112;13.772;2022-07-22T07:02:33;6.57;;;4.20;;
39196;SDS011;42889;51.112;13.772;2022-07-22T07:05:00;6.63;;;3.75;;
39196;SDS011;42889;51.112;13.772;2022-07-22T07:07:27;7.32;;;4.63;;
39196;SDS011;42889;51.112;13.772;2022-07-22T07:09:54;6.47;;;4.22;;
39196;SDS011;42889;51.112;13.772;2022-07-22T07:12:20;5.25;;;3.88;;
39196;SDS011;42889;51.112;13.772;2022-07-22T07:14:47;6.07;;;3.95;;
39196;SDS011;42889;51.112;13.772;2022-07-22T07:17:34;4.68;;;3.55;;
39196;SDS011;42889;51.112;13.772;2022-07-22T07:20:00;4.95;;;3.78;;
39196;SDS011;42889;51.112;13.772;2022-07-22T07:22:27;6.07;;;3.50;;
39196;SDS011;42889;51.112;13.772;2022-07-22T07:24:53;5.55;;;3.90;;
39196;SDS011;42889;51.112;13.772;2022-07-22T07:27:23;9.40;;;4.30;;
39196;SDS011;42889;51.112;13.772;2022-07-22T07:29:51;5.45;;;3.25;;
39196;SDS011;42889;51.112;13.772;2022-07-22T07:32:17;5.60;;;3.20;;
39196;SDS011;42889;51.112;13.772;2022-07-22T07:34:44;4.70;;;3.28;;
39196;SDS011;42889;51.112;13.772;2022-07-22T07:37:10;5.95;;;3.40;;
39196;SDS011;42889;51.112;13.772;2022-07-22T07:39:38;7.95;;;3.60;;
39196;SDS011;42889;51.112;13.772;2022-07-22T07:42:05;6.10;;;3.38;;
39196;SDS011;42889;51.112;13.772;2022-07-22T07:44:31;6.07;;;3.72;;
39196;SDS011;42889;51.112;13.772;2022-07-22T07:46:58;5.50;;;3.08;;
39196;SDS011;42889;51.112;13.772;2022-07-22T07:49:24;6.50;;;4.05;;
39196;SDS011;42889;51.112;13.772;2022-07-22T07:51:51;6.88;;;3.70;;
39196;SDS011;42889;51.112;13.772;2022-07-22T07:54:18;4.57;;;3.55;;
39196;SDS011;42889;51.112;13.772;2022-07-22T07:56:47;5.72;;;4.20;;
39196;SDS011;42889;51.112;13.772;2022-07-22T07:59:14;7.93;;;4.50;;
39196;SDS011;42889;51.112;13.772;2022-07-22T08:01:54;5.50;;;3.93;;
39196;SDS011;42889;51.112;13.772;2022-07-22T08:07:03;5.82;;;3.80;;
39196;SDS011;42889;51.112;13.772;2022-07-22T08:09:31;5.50;;;3.60;;
39196;SDS011;42889;51.112;13.772;2022-07-22T08:11:58;6.60;;;4.28;;
39196;SDS011;42889;51.112;13.772;2022-07-22T08:14:25;9.25;;;3.95;;
39196;SDS011;42889;51.112;13.772;2022-07-22T08:16:51;8.48;;;4.65;;
39196;SDS011;42889;51.112;13.772;2022-07-22T08:19:18;6.28;;;4.10;;
39196;SDS011;42889;51.112;13.772;2022-07-22T08:21:45;6.07;;;4.30;;
39196;SDS011;42889;51.112;13.772;2022-07-22T08:24:11;6.97;;;4.57;;
39196;SDS011;42889;51.112;13.772;2022-07-22T08:26:38;6.55;;;4.25;;
39196;SDS011;42889;51.112;13.772;2022-07-22T08:29:04;9.43;;;4.30;;
39196;SDS011;42889;51.112;13.772;2022-07-22T08:31:33;5.25;;;4.20;;
39196;SDS011;42889;51.112;13.772;2022-07-22T08:34:01;6.80;;;4.10;;
39196;SDS011;42889;51.112;13.772;2022-07-22T08:36:29;6.13;;;4.05;;
39196;SDS011;42889;51.112;13.772;2022-07-22T08:38:56;6.25;;;4.53;;
39196;SDS011;42889;51.112;13.772;2022-07-22T08:41:23;7.38;;;4.25;;
39196;SDS011;42889;51.112;13.772;2022-07-22T08:43:51;9.68;;;4.35;;
39196;SDS011;42889;51.112;13.772;2022-07-22T08:46:19;4.75;;;3.72;;
39196;SDS011;42889;51.112;13.772;2022-07-22T08:48:46;5.82;;;4.40;;
39196;SDS011;42889;51.112;13.772;2022-07-22T08:51:15;5.55;;;4.03;;
39196;SDS011;42889;51.112;13.772;2022-07-22T08:53:41;6.13;;;3.95;;
39196;SDS011;42889;51.112;13.772;2022-07-22T08:56:08;6.82;;;4.00;;
39196;SDS011;42889;51.112;13.772;2022-07-22T08:58:34;6.28;;;4.60;;
39196;SDS011;42889;51.112;13.772;2022-07-22T09:01:08;7.22;;;4.30;;
39196;SDS011;42889;51.112;13.772;2022-07-22T09:03:44;5.47;;;4.03;;
39196;SDS011;42889;51.112;13.772;2022-07-22T09:06:16;4.97;;;3.85;;
39196;SDS011;42889;51.112;13.772;2022-07-22T09:08:50;5.88;;;4.07;;
39196;SDS011;42889;51.112;13.772;2022-07-22T09:11:19;6.07;;;3.53;;
39196;SDS011;42889;51.112;13.772;2022-07-22T09:13:47;6.78;;;3.90;;
39196;SDS011;42889;51.112;13.772;2022-07-22T09:16:15;4.80;;;3.63;;
39196;SDS011;42889;51.112;13.772;2022-07-22T09:18:48;8.15;;;4.20;;
39196;SDS011;42889;51.112;13.772;2022-07-22T09:21:17;6.47;;;4.15;;
39196;SDS011;42889;51.112;13.772;2022-07-22T09:23:43;8.20;;;4.05;;
39196;SDS011;42889;51.112;13.772;2022-07-22T09:26:32;7.60;;;4.30;;
39196;SDS011;42889;51.112;13.772;2022-07-22T09:29:01;7.78;;;3.90;;
39196;SDS011;42889;51.112;13.772;2022-07-22T09:31:31;7.07;;;4.18;;
39196;SDS011;42889;51.112;13.772;2022-07-22T09:34:02;5.03;;;3.45;;
39196;SDS011;42889;51.112;13.772;2022-07-22T09:36:30;5.30;;;3.60;;
39196;SDS011;42889;51.112;13.772;2022-07-22T09:38:57;4.75;;;3.33;;
39196;SDS011;42889;51.112;13.772;2022-07-22T09:41:26;6.03;;;3.60;;
39196;SDS011;42889;51.112;13.772;2022-07-22T09:43:53;6.13;;;3.72;;
39196;SDS011;42889;51.112;13.772;2022-07-22T09:46:34;5.38;;;3.60;;
39196;SDS011;42889;51.112;13.772;2022-07-22T09:49:12;6.43;;;3.78;;
39196;SDS011;42889;51.112;13.772;2022-07-22T09:51:56;6.45;;;3.70;;
39196;SDS011;42889;51.112;13.772;2022-07-22T09:54:23;5.30;;;3.22;;
39196;SDS011;42889;51.112;13.772;2022-07-22T09:56:51;4.63;;;3.20;;
39196;SDS011;42889;51.112;13.772;2022-07-22T09:59:18;6.97;;;3.58;;
39196;SDS011;42889;51.112;13.772;2022-07-22T10:01:45;6.03;;;3.50;;
39196;SDS011;42889;51.112;13.772;2022-07-22T10:04:17;5.57;;;3.40;;
39196;SDS011;42889;51.112;13.772;2022-07-22T10:06:47;5.85;;;3.70;;
39196;SDS011;42889;51.112;13.772;2022-07-22T10:09:16;6.50;;;3.50;;
39196;SDS011;42889;51.112;13.772;2022-07-22T10:11:44;5.82;;;3.75;;
39196;SDS011;42889;51.112;13.772;2022-07-22T10:14:16;6.03;;;4.10;;
39196;SDS011;42889;51.112;13.772;2022-07-22T10:16:48;5.97;;;3.60;;
39196;SDS011;42889;51.112;13.772;2022-07-22T10:19:15;4.70;;;3.40;;
39196;SDS011;42889;51.112;13.772;2022-07-22T10:21:42;5.55;;;3.30;;
39196;SDS011;42889;51.112;13.772;2022-07-22T10:24:16;4.32;;;3.30;;
39196;SDS011;42889;51.112;13.772;2022-07-22T10:26:50;4.30;;;3.03;;
39196;SDS011;42889;51.112;13.772;2022-07-22T10:45:27;5.00;;;3.05;;
39196;SDS011;42889;51.112;13.772;2022-07-22T10:48:05;5.13;;;3.05;;
39196;SDS011;42889;51.112;13.772;2022-07-22T10:53:05;5.45;;;3.50;;
39196;SDS011;42889;51.112;13.772;2022-07-22T10:58:50;6.13;;;3.40;;
39196;SDS011;42889;51.112;13.772;2022-07-22T11:01:27;4.55;;;3.17;;
39196;SDS011;42889;51.112;13.772;2022-07-22T11:06:55;6.75;;;3.22;;
39196;SDS011;42889;51.112;13.772;2022-07-22T11:09:27;4.15;;;3.10;;
39196;SDS011;42889;51.112;13.772;2022-07-22T11:11:58;5.70;;;3.13;;
39196;SDS011;42889;51.112;13.772;2022-07-22T11:14:29;5.95;;;3.50;;
39196;SDS011;42889;51.112;13.772;2022-07-22T11:16:59;5.63;;;3.08;;
39196;SDS011;42889;51.112;13.772;2022-07-22T11:19:30;6.88;;;2.97;;
39196;SDS011;42889;51.112;13.772;2022-07-22T11:21:59;4.97;;;3.08;;
39196;SDS011;42889;51.112;13.772;2022-07-22T11:24:29;4.93;;;2.70;;
39196;SDS011;42889;51.112;13.772;2022-07-22T11:26:57;4.72;;;2.67;;
39196;SDS011;42889;51.112;13.772;2022-07-22T11:29:31;4.70;;;2.90;;
39196;SDS011;42889;51.112;13.772;2022-07-22T11:32:02;4.18;;;2.53;;
39196;SDS011;42889;51.112;13.772;2022-07-22T11:34:35;3.70;;;2.65;;
39196;SDS011;42889;51.112;13.772;2022-07-22T11:37:16;3.83;;;2.90;;
39196;SDS011;42889;51.112;13.772;2022-07-22T11:39:50;5.00;;;3.08;;
39196;SDS011;42889;51.112;13.772;2022-07-22T11:42:17;4.28;;;3.05;;
39196;SDS011;42889;51.112;13.772;2022-07-22T11:44:44;6.00;;;3.13;;
39196;SDS011;42889;51.112;13.772;2022-07-22T11:47:17;6.38;;;3.10;;
39196;SDS011;42889;51.112;13.772;2022-07-22T11:49:45;3.88;;;2.60;;
39196;SDS011;42889;51.112;13.772;2022-07-22T11:52:13;5.65;;;2.85;;
39196;SDS011;42889;51.112;13.772;2022-07-22T11:54:41;6.68;;;3.00;;
39196;SDS011;42889;51.112;13.772;2022-07-22T11:57:09;4.97;;;2.55;;
39196;SDS011;42889;51.112;13.772;2022-07-22T11:59:36;6.18;;;2.70;;
39196;SDS011;42889;51.112;13.772;2022-07-22T12:02:03;3.40;;;2.55;;
39196;SDS011;42889;51.112;13.772;2022-07-22T12:04:32;4.07;;;2.50;;
39196;SDS011;42889;51.112;13.772;2022-07-22T12:07:00;5.15;;;2.72;;
39196;SDS011;42889;51.112;13.772;2022-07-22T12:09:33;4.25;;;2.20;;
39196;SDS011;42889;51.112;13.772;2022-07-22T12:12:01;4.50;;;2.20;;
39196;SDS011;42889;51.112;13.772;2022-07-22T12:14:30;4.05;;;2.72;;
39196;SDS011;42889;51.112;13.772;2022-07-22T12:17:00;4.22;;;2.20;;
39196;SDS011;42889;51.112;13.772;2022-07-22T12:19:28;3.95;;;1.98;;
39196;SDS011;42889;51.112;13.772;2022-07-22T12:24:46;5.70;;;2.45;;
39196;SDS011;42889;51.112;13.772;2022-07-22T12:27:17;3.20;;;2.22;;
39196;SDS011;42889;51.112;13.772;2022-07-22T12:29:46;4.60;;;2.20;;
39196;SDS011;42889;51.112;13.772;2022-07-22T12:32:17;5.43;;;2.15;;
39196;SDS011;42889;51.112;13.772;2022-07-22T12:37:20;2.80;;;2.00;;
39196;SDS011;42889;51.112;13.772;2022-07-22T12:39:53;2.55;;;1.90;;
39196;SDS011;42889;51.112;13.772;2022-07-22T12:42:24;3.13;;;1.77;;
39196;SDS011;42889;51.112;13.772;2022-07-22T12:44:59;3.28;;;1.65;;
39196;SDS011;42889;51.112;13.772;2022-07-22T12:50:23;4.13;;;1.90;;
39196;SDS011;42889;51.112;13.772;2022-07-22T12:52:54;4.80;;;1.98;;
39196;SDS011;42889;51.112;13.772;2022-07-22T12:55:50;3.30;;;1.70;;
39196;SDS011;42889;51.112;13.772;2022-07-22T12:58:22;3.00;;;1.63;;
39196;SDS011;42889;51.112;13.772;2022-07-22T13:00:51;4.40;;;1.70;;
39196;SDS011;42889;51.112;13.772;2022-07-22T13:03:19;4.80;;;1.43;;
39196;SDS011;42889;51.112;13.772;2022-07-22T13:05:56;3.38;;;1.30;;
39196;SDS011;42889;51.112;13.772;2022-07-22T13:08:24;2.40;;;1.38;;
39196;SDS011;42889;51.112;13.772;2022-07-22T13:10:55;2.97;;;1.40;;
39196;SDS011;42889;51.112;13.772;2022-07-22T13:13:22;3.75;;;1.50;;
39196;SDS011;42889;51.112;13.772;2022-07-22T13:15:50;2.47;;;1.30;;
39196;SDS011;42889;51.112;13.772;2022-07-22T13:18:17;2.97;;;1.35;;
39196;SDS011;42889;51.112;13.772;2022-07-22T13:20:45;4.50;;;1.73;;
39196;SDS011;42889;51.112;13.772;2022-07-22T13:23:13;2.60;;;1.45;;
39196;SDS011;42889;51.112;13.772;2022-07-22T13:25:39;3.55;;;1.60;;
39196;SDS011;42889;51.112;13.772;2022-07-22T13:28:06;4.45;;;1.70;;
39196;SDS011;42889;51.112;13.772;2022-07-22T13:30:33;3.05;;;1.48;;
39196;SDS011;42889;51.112;13.772;2022-07-22T13:32:59;3.58;;;1.63;;
39196;SDS011;42889;51.112;13.772;2022-07-22T13:35:26;2.22;;;1.33;;
39196;SDS011;42889;51.112;13.772;2022-07-22T13:37:53;4.32;;;1.52;;
39196;SDS011;42889;51.112;13.772;2022-07-22T13:40:19;3.55;;;1.70;;
39196;SDS011;42889;51.112;13.772;2022-07-22T13:42:46;3.22;;;1.52;;
39196;SDS011;42889;51.112;13.772;2022-07-22T13:45:12;3.10;;;1.50;;
39196;SDS011;42889;51.112;13.772;2022-07-22T13:47:40;3.63;;;1.80;;
39196;SDS011;42889;51.112;13.772;2022-07-22T13:50:07;2.60;;;1.85;;
39196;SDS011;42889;51.112;13.772;2022-07-22T13:52:35;3.00;;;1.60;;
39196;SDS011;42889;51.112;13.772;2022-07-22T13:55:02;2.08;;;1.17;;
39196;SDS011;42889;51.112;13.772;2022-07-22T13:57:29;2.88;;;1.60;;
39196;SDS011;42889;51.112;13.772;2022-07-22T13:59:56;3.20;;;1.60;;
39196;SDS011;42889;51.112;13.772;2022-07-22T14:02:23;2.58;;;1.63;;
39196;SDS011;42889;51.112;13.772;2022-07-22T14:04:50;2.63;;;1.50;;
39196;SDS011;42889;51.112;13.772;2022-07-22T14:07:17;2.30;;;1.40;;
39196;SDS011;42889;51.112;13.772;2022-07-22T14:09:44;2.63;;;1.45;;
39196;SDS011;42889;51.112;13.772;2022-07-22T14:12:10;3.03;;;1.55;;
39196;SDS011;42889;51.112;13.772;2022-07-22T14:14:37;2.97;;;1.70;;
39196;SDS011;42889;51.112;13.772;2022-07-22T14:17:04;2.65;;;1.70;;
39196;SDS011;42889;51.112;13.772;2022-07-22T14:19:30;3.25;;;1.38;;
39196;SDS011;42889;51.112;13.772;2022-07-22T14:21:57;2.67;;;1.40;;
39196;SDS011;42889;51.112;13.772;2022-07-22T14:24:24;2.90;;;1.40;;
39196;SDS011;42889;51.112;13.772;2022-07-22T14:26:52;2.58;;;1.75;;
39196;SDS011;42889;51.112;13.772;2022-07-22T14:29:19;3.85;;;1.80;;
39196;SDS011;42889;51.112;13.772;2022-07-22T14:31:48;3.05;;;1.50;;
39196;SDS011;42889;51.112;13.772;2022-07-22T14:34:15;2.60;;;1.80;;
39196;SDS011;42889;51.112;13.772;2022-07-22T14:36:44;2.30;;;1.55;;
39196;SDS011;42889;51.112;13.772;2022-07-22T14:39:11;2.55;;;1.73;;
39196;SDS011;42889;51.112;13.772;2022-07-22T14:41:38;3.85;;;2.03;;
39196;SDS011;42889;51.112;13.772;2022-07-22T14:44:04;3.03;;;1.90;;
39196;SDS011;42889;51.112;13.772;2022-07-22T14:46:31;3.58;;;2.00;;
39196;SDS011;42889;51.112;13.772;2022-07-22T14:48:58;3.28;;;1.75;;
39196;SDS011;42889;51.112;13.772;2022-07-22T14:51:25;4.35;;;1.55;;
39196;SDS011;42889;51.112;13.772;2022-07-22T14:53:52;3.22;;;1.70;;
39196;SDS011;42889;51.112;13.772;2022-07-22T14:56:19;3.80;;;1.75;;
39196;SDS011;42889;51.112;13.772;2022-07-22T14:58:45;3.70;;;1.92;;
39196;SDS011;42889;51.112;13.772;2022-07-22T15:01:12;3.63;;;1.98;;
39196;SDS011;42889;51.112;13.772;2022-07-22T15:03:40;3.67;;;2.00;;
39196;SDS011;42889;51.112;13.772;2022-07-22T15:06:07;2.75;;;1.80;;
39196;SDS011;42889;51.112;13.772;2022-07-22T15:08:35;4.03;;;1.90;;